Preview of NWS' New Version of Forecast
This preview is not operational and should not be used for support decisions.

Terminal Aerodrome Forecast (TAF)

Issued by National Weather Service (NWS)

                            
000
FTUS42 KMFL 151735
TAFMIA
TAF
KMIA 151735Z 1518/1624 27011KT P6SM VCSH SCT020 BKN035 OVC050
      TEMPO 1518/1521 2SM SHRA SCT015 BKN025
     FM160200 30003KT P6SM SCT050 BKN080 BKN200
     FM161300 31005KT P6SM FEW100 SCT200=